Arboga, California
Current Conditions -  °F | °C
As of 7:53 PM on Thursday 18 Dec 2014 (Local Time) from KMYV Reporting Station
Overcast Overcast  
Wind Chill: 52°   Ceiling: 10000
Heat Index: 52°   Visibility: 10mi
Dew Point: 48°   Wind: 6mph
Humidity: 86%   Direction: 110°ESE
Pressure: 30.16"   Gusts: NA
Location:  39.0904°N, 121.552°W
Report Text: KMYV 190353Z AUTO 11005KT 10SM SCT047 OVC100 11/09 A3016 RMK AO2 SLP216 T01110089
Loading
Personal Weather Stations






























Interactive Weather Map New forecast layout! Learn more

10-Day Weather Forecast

Advertisements
Track Severe Weather on mobile